Flight Track Log - Related Links

Times and Time Zones

All times are in EDT time to prevent confusion due to time zone crossing. See the N662US flight status page for this flight to view local times or setup timezone preferences in your user account.

Time Position Orientation Groundspeed Altitude Reporting Facility
EDT Latitude Longitude Course Direction KTS MPH feet Rate Location/Type
Tue 06:25:00 AM 32.0895 34.7648 310° West  Level FlightAware Approximate
Tue 06:26:00 AM 32.1667 34.6499 315° West  Level FlightAware Approximate
Tue 06:27:00 AM 32.2551 34.5468 315° West  Level FlightAware Approximate
Tue 06:28:00 AM 32.3417 34.4417 313° West  Level FlightAware Approximate
Tue 06:29:00 AM 32.4249 34.3324 311° West  Level FlightAware Approximate
Tue 06:30:00 AM 32.5061 34.2209 311° West  Level FlightAware Approximate
Tue 06:31:00 AM 32.5964 34.1203 320° Northwest  Level FlightAware Approximate
Tue 06:32:00 AM 32.6786 34.0110 307° West  Level FlightAware Approximate
Tue 06:33:00 AM 32.7605 33.9007 317° Northwest  Level FlightAware Approximate
Tue 06:34:00 AM 32.8507 33.7990 311° West  Level FlightAware Approximate
Tue 06:35:00 AM 32.9321 33.6872 311° West  Level FlightAware Approximate
Tue 06:36:00 AM 33.0141 33.5757 312° West  Level FlightAware Approximate
Tue 06:37:00 AM 33.0991 33.4681 309° West  Level FlightAware Approximate
Tue 06:38:00 AM 33.1806 33.3560 313° West  Level FlightAware Approximate
Tue 06:39:00 AM 33.2654 33.2472 313° West  Level FlightAware Approximate
Tue 06:40:00 AM 33.3501 33.1381 313° West  Level FlightAware Approximate
Tue 06:41:00 AM 33.4345 33.0286 313° West  Level FlightAware Approximate
Tue 06:42:00 AM 33.5188 32.9189 313° West  Level FlightAware Approximate
Tue 06:43:00 AM 33.6025 32.8084 312° West  Level FlightAware Approximate
Tue 06:44:00 AM 33.6859 32.6975 312° West  Level FlightAware Approximate
Tue 06:45:00 AM 33.7692 32.5864 312° West  Level FlightAware Approximate
Tue 06:46:00 AM 33.8524 32.4750 312° West  Level FlightAware Approximate
Tue 06:47:00 AM 33.9355 32.3635 312° West  Level FlightAware Approximate
Tue 06:48:00 AM 34.0186 32.2517 312° West  Level FlightAware Approximate
Tue 06:49:00 AM 34.1015 32.1398 312° West  Level FlightAware Approximate
Tue 06:50:00 AM 34.1843 32.0276 312° West  Level FlightAware Approximate
Tue 06:51:00 AM 34.2670 31.9151 312° West  Level FlightAware Approximate
Tue 06:52:00 AM 34.3496 31.8025 312° West  Level FlightAware Approximate
Tue 06:53:00 AM 34.4321 31.6896 312° West  Level FlightAware Approximate
Tue 06:54:00 AM 34.5145 31.5766 312° West  Level FlightAware Approximate
Tue 06:55:00 AM 34.5968 31.4632 311° West  Level FlightAware Approximate
Tue 06:56:00 AM 34.6790 31.3497 311° West  Level FlightAware Approximate
Tue 06:57:00 AM 34.7612 31.2358 311° West  Level FlightAware Approximate
Tue 06:58:00 AM 34.8433 31.1216 311° West  Level FlightAware Approximate
Tue 06:59:00 AM 34.9253 31.0072 311° West  Level FlightAware Approximate
Tue 07:00:00 AM 35.0072 30.8926 311° West  Level FlightAware Approximate
Tue 07:01:00 AM 35.0890 30.7778 311° West  Level FlightAware Approximate
Tue 07:02:00 AM 35.1707 30.6627 311° West  Level FlightAware Approximate
Tue 07:03:00 AM 35.2523 30.5474 311° West  Level FlightAware Approximate
Tue 07:04:00 AM 35.3337 30.4319 311° West  Level FlightAware Approximate
Tue 07:05:00 AM 35.4151 30.3161 311° West  Level FlightAware Approximate
Tue 07:06:00 AM 35.4963 30.2001 311° West  Level FlightAware Approximate
Tue 07:07:00 AM 35.5774 30.0839 311° West  Level FlightAware Approximate
Tue 07:08:00 AM 35.6585 29.9674 311° West  Level FlightAware Approximate
Tue 07:09:00 AM 35.7393 29.8507 311° West  Level FlightAware Approximate
Tue 07:10:00 AM 35.8201 29.7337 310° West  Level FlightAware Approximate
Tue 07:11:00 AM 35.9008 29.6165 310° West  Level FlightAware Approximate
Tue 07:12:00 AM 35.9814 29.4991 310° West  Level FlightAware Approximate
Tue 07:13:00 AM 36.0618 29.3815 310° West  Level FlightAware Approximate
Tue 07:14:00 AM 36.1422 29.2635 310° West  Level FlightAware Approximate
Tue 07:15:00 AM 36.2224 29.1454 310° West  Level FlightAware Approximate
Tue 07:16:00 AM 36.3025 29.0270 310° West  Level FlightAware Approximate
Tue 07:17:00 AM 36.3824 28.9084 310° West  Level FlightAware Approximate
Tue 07:18:00 AM 36.4623 28.7895 310° West  Level FlightAware Approximate
Tue 07:19:00 AM 36.5420 28.6704 310° West  Level FlightAware Approximate
Tue 07:20:00 AM 36.6217 28.5510 310° West  Level FlightAware Approximate
Tue 07:21:00 AM 36.7012 28.4314 310° West  Level FlightAware Approximate
Tue 07:22:00 AM 36.7806 28.3115 310° West  Level FlightAware Approximate
Tue 07:23:00 AM 36.8599 28.1914 310° West  Level FlightAware Approximate
Tue 07:24:00 AM 36.9390 28.0711 309° West  Level FlightAware Approximate
Tue 07:25:00 AM 37.0180 27.9505 309° West  Level FlightAware Approximate
Tue 07:26:00 AM 37.0969 27.8296 309° West  Level FlightAware Approximate
Tue 07:27:00 AM 37.1757 27.7085 309° West  Level FlightAware Approximate
Tue 07:28:00 AM 37.2544 27.5871 309° West  Level FlightAware Approximate
Tue 07:29:00 AM 37.3329 27.4655 309° West  Level FlightAware Approximate
Tue 07:30:00 AM 37.4113 27.3436 309° West  Level FlightAware Approximate
Tue 07:31:00 AM 37.4896 27.2215 309° West  Level FlightAware Approximate
Tue 07:32:00 AM 37.5677 27.0991 309° West  Level FlightAware Approximate
Tue 07:33:00 AM 37.6458 26.9765 309° West  Level FlightAware Approximate
Tue 07:34:00 AM 37.7237 26.8536 309° West  Level FlightAware Approximate
Tue 07:35:00 AM 37.8014 26.7304 309° West  Level FlightAware Approximate
Tue 07:36:00 AM 37.8791 26.6070 309° West  Level FlightAware Approximate
Tue 07:37:00 AM 37.9566 26.4833 309° West  Level FlightAware Approximate
Tue 07:38:00 AM 38.0340 26.3594 308° West  Level FlightAware Approximate
Tue 07:39:00 AM 38.1113 26.2352 308° West  Level FlightAware Approximate
Tue 07:40:00 AM 38.1884 26.1107 308° West  Level FlightAware Approximate
Tue 07:41:00 AM 38.2654 25.9860 308° West  Level FlightAware Approximate
Tue 07:42:00 AM 38.3422 25.8610 308° West  Level FlightAware Approximate
Tue 07:43:00 AM 38.4190 25.7358 308° West  Level FlightAware Approximate
Tue 07:44:00 AM 38.4956 25.6102 308° West  Level FlightAware Approximate
Tue 07:45:00 AM 38.5720 25.4844 308° West  Level FlightAware Approximate
Tue 07:46:00 AM 38.6483 25.3584 308° West  Level FlightAware Approximate
Tue 07:47:00 AM 38.7245 25.2320 308° West  Level FlightAware Approximate
Tue 07:48:00 AM 38.8006 25.1055 308° West  Level FlightAware Approximate
Tue 07:49:00 AM 38.8765 24.9786 308° West  Level FlightAware Approximate
Tue 07:50:00 AM 38.9523 24.8514 307° West  Level FlightAware Approximate
Tue 07:51:00 AM 39.0279 24.7240 307° West  Level FlightAware Approximate
Tue 07:52:00 AM 39.1034 24.5964 307° West  Level FlightAware Approximate
Tue 07:53:00 AM 39.1788 24.4684 307° West  Level FlightAware Approximate
Tue 07:54:00 AM 39.2540 24.3402 307° West  Level FlightAware Approximate
Tue 07:55:00 AM 39.3291 24.2117 307° West  Level FlightAware Approximate
Tue 07:56:00 AM 39.4040 24.0829 307° West  Level FlightAware Approximate
Tue 07:57:00 AM 39.4788 23.9538 307° West  Level FlightAware Approximate
Tue 07:58:00 AM 39.5535 23.8245 307° West  Level FlightAware Approximate
Tue 07:59:00 AM 39.6280 23.6949 307° West  Level FlightAware Approximate
Tue 08:00:00 AM 39.7024 23.5650 307° West  Level FlightAware Approximate
Tue 08:01:00 AM 39.7766 23.4348 307° West  Level FlightAware Approximate
Tue 08:02:00 AM 39.8507 23.3044 307° West  Level FlightAware Approximate
Tue 08:03:00 AM 39.9246 23.1737 306° West  Level FlightAware Approximate
Tue 08:04:00 AM 39.9984 23.0426 306° West  Level FlightAware Approximate
Tue 08:05:00 AM 40.0720 22.9113 306° West  Level FlightAware Approximate
Tue 08:06:00 AM 40.1455 22.7798 306° West  Level FlightAware Approximate
Tue 08:07:00 AM 40.2188 22.6479 306° West  Level FlightAware Approximate
Tue 08:08:00 AM 40.2920 22.5157 306° West  Level FlightAware Approximate
Tue 08:09:00 AM 40.3651 22.3833 306° West  Level FlightAware Approximate
Tue 08:10:00 AM 40.4379 22.2506 306° West  Level FlightAware Approximate
Tue 08:11:00 AM 40.5107 22.1176 306° West  Level FlightAware Approximate
Tue 08:12:00 AM 40.5832 21.9843 306° West  Level FlightAware Approximate
Tue 08:13:00 AM 40.6557 21.8507 306° West  Level FlightAware Approximate
Tue 08:14:00 AM 40.7280 21.7168 305° West  Level FlightAware Approximate
Tue 08:15:00 AM 40.8001 21.5826 305° West  Level FlightAware Approximate
Tue 08:16:00 AM 40.8720 21.4482 305° West  Level FlightAware Approximate
Tue 08:17:00 AM 40.9438 21.3134 305° West  Level FlightAware Approximate
Tue 08:18:00 AM 41.0155 21.1783 305° West  Level FlightAware Approximate
Tue 08:19:00 AM 41.0870 21.0430 305° West  Level FlightAware Approximate
Tue 08:20:00 AM 41.1583 20.9074 305° West  Level FlightAware Approximate
Tue 08:21:00 AM 41.2295 20.7714 305° West  Level FlightAware Approximate
Tue 08:22:00 AM 41.3005 20.6352 305° West  Level FlightAware Approximate
Tue 08:23:00 AM 41.3713 20.4987 305° West  Level FlightAware Approximate
Tue 08:24:00 AM 41.4420 20.3619 305° West  Level FlightAware Approximate
Tue 08:25:00 AM 41.5126 20.2247 305° West  Level FlightAware Approximate
Tue 08:26:00 AM 41.5829 20.0873 304° West  Level FlightAware Approximate
Tue 08:27:00 AM 41.6531 19.9496 304° West  Level FlightAware Approximate
Tue 08:28:00 AM 41.7231 19.8116 304° West  Level FlightAware Approximate
Tue 08:29:00 AM 41.7930 19.6733 304° West  Level FlightAware Approximate
Tue 08:30:00 AM 41.8628 19.5344 304° West  Level FlightAware Approximate
Tue 08:31:00 AM 41.9325 19.3953 304° West  Level FlightAware Approximate
Tue 08:32:00 AM 42.0019 19.2558 304° West  Level FlightAware Approximate
Tue 08:33:00 AM 42.0712 19.1161 304° West  Level FlightAware Approximate
Tue 08:34:00 AM 42.1404 18.9760 304° West  Level FlightAware Approximate
Tue 08:35:00 AM 42.2093 18.8357 304° West  Level FlightAware Approximate
Tue 08:36:00 AM 42.2781 18.6950 303° West  Level FlightAware Approximate
Tue 08:37:00 AM 42.3467 18.5541 303° West  Level FlightAware Approximate
Tue 08:38:00 AM 42.4152 18.4128 303° West  Level FlightAware Approximate
Tue 08:39:00 AM 42.4835 18.2712 303° West  Level FlightAware Approximate
Tue 08:40:00 AM 42.5516 18.1293 303° West  Level FlightAware Approximate
Tue 08:41:00 AM 42.6195 17.9871 303° West  Level FlightAware Approximate
Tue 08:42:00 AM 42.6872 17.8446 303° West  Level FlightAware Approximate
Tue 08:43:00 AM 42.7548 17.7017 303° West  Level FlightAware Approximate
Tue 08:44:00 AM 42.8222 17.5586 303° West  Level FlightAware Approximate
Tue 08:45:00 AM 42.8894 17.4152 303° West  Level FlightAware Approximate
Tue 08:46:00 AM 42.9564 17.2714 303° West  Level FlightAware Approximate
Tue 08:47:00 AM 43.0233 17.1273 302° West  Level FlightAware Approximate
Tue 08:48:00 AM 43.0899 16.9829 302° West  Level FlightAware Approximate
Tue 08:49:00 AM 43.1564 16.8382 302° West  Level FlightAware Approximate
Tue 08:50:00 AM 43.2227 16.6932 302° West  Level FlightAware Approximate
Tue 08:51:00 AM 43.2889 16.5479 302° West  Level FlightAware Approximate
Tue 08:52:00 AM 43.3548 16.4022 302° West  Level FlightAware Approximate
Tue 08:53:00 AM 43.4206 16.2563 302° West  Level FlightAware Approximate
Tue 08:54:00 AM 43.4861 16.1100 302° West  Level FlightAware Approximate
Tue 08:55:00 AM 43.5515 15.9634 302° West  Level FlightAware Approximate
Tue 08:56:00 AM 43.6167 15.8165 302° West  Level FlightAware Approximate
Tue 08:57:00 AM 43.6817 15.6692 301° West  Level FlightAware Approximate
Tue 08:58:00 AM 43.7465 15.5217 301° West  Level FlightAware Approximate
Tue 08:59:00 AM 43.8111 15.3738 301° West  Level FlightAware Approximate
Tue 09:00:00 AM 43.8756 15.2256 301° West  Level FlightAware Approximate
Tue 09:01:00 AM 43.9398 15.0771 301° West  Level FlightAware Approximate
Tue 09:02:00 AM 44.0038 14.9283 301° West  Level FlightAware Approximate
Tue 09:03:00 AM 44.0677 14.7791 301° West  Level FlightAware Approximate
Tue 09:04:00 AM 44.1314 14.6297 301° West  Level FlightAware Approximate
Tue 09:05:00 AM 44.1948 14.4799 301° West  Level FlightAware Approximate
Tue 09:06:00 AM 44.2581 14.3297 301° West  Level FlightAware Approximate
Tue 09:07:00 AM 44.3212 14.1793 300° West  Level FlightAware Approximate
Tue 09:08:00 AM 44.3840 14.0285 300° West  Level FlightAware Approximate
Tue 09:09:00 AM 44.4468 13.8774 300° West  Level FlightAware Approximate
Tue 09:10:00 AM 44.5093 13.7261 300° West  Level FlightAware Approximate
Tue 09:11:00 AM 44.5716 13.5744 300° West  Level FlightAware Approximate
Tue 09:12:00 AM 44.6337 13.4223 300° West  Level FlightAware Approximate
Tue 09:13:00 AM 44.6956 13.2700 300° West  Level FlightAware Approximate
Tue 09:14:00 AM 44.7574 13.1173 300° West  Level FlightAware Approximate
Tue 09:15:00 AM 44.8189 12.9643 300° West  Level FlightAware Approximate
Tue 09:16:00 AM 44.8802 12.8110 299° West  Level FlightAware Approximate
Tue 09:17:00 AM 44.9413 12.6573 299° West  Level FlightAware Approximate
Tue 09:18:00 AM 45.0022 12.5033 299° West  Level FlightAware Approximate
Tue 09:19:00 AM 45.0629 12.3490 299° West  Level FlightAware Approximate
Tue 09:20:00 AM 45.1233 12.1944 299° West  Level FlightAware Approximate
Tue 09:21:00 AM 45.1836 12.0394 299° West  Level FlightAware Approximate
Tue 09:22:00 AM 45.2437 11.8841 299° West  Level FlightAware Approximate
Tue 09:23:00 AM 45.3035 11.7285 299° West  Level FlightAware Approximate
Tue 09:24:00 AM 45.3632 11.5725 299° West  Level FlightAware Approximate
Tue 09:25:00 AM 45.4226 11.4162 298° West  Level FlightAware Approximate
Tue 09:26:00 AM 45.4818 11.2596 298° West  Level FlightAware Approximate
Tue 09:27:00 AM 45.5408 11.1027 298° West  Level FlightAware Approximate
Tue 09:28:00 AM 45.5996 10.9454 298° West  Level FlightAware Approximate
Tue 09:29:00 AM 45.6581 10.7878 298° West  Level FlightAware Approximate
Tue 09:30:00 AM 45.7165 10.6299 298° West  Level FlightAware Approximate
Tue 09:31:00 AM 45.7746 10.4716 298° West  Level FlightAware Approximate
Tue 09:32:00 AM 45.8325 10.3130 298° West  Level FlightAware Approximate
Tue 09:33:00 AM 45.8902 10.1541 298° West  Level FlightAware Approximate
Tue 09:34:00 AM 45.9477 9.9949 297° West  Level FlightAware Approximate
Tue 09:35:00 AM 46.0049 9.8353 297° West  Level FlightAware Approximate
Tue 09:36:00 AM 46.0619 9.6754 297° West  Level FlightAware Approximate
Tue 09:37:00 AM 46.1187 9.5152 297° West  Level FlightAware Approximate
Tue 09:38:00 AM 46.1753 9.3546 297° West  Level FlightAware Approximate
Tue 09:39:00 AM 46.2317 9.1937 297° West  Level FlightAware Approximate
Tue 09:40:00 AM 46.2878 9.0325 297° West  Level FlightAware Approximate
Tue 09:41:00 AM 46.3437 8.8709 297° West  Level FlightAware Approximate
Tue 09:42:00 AM 46.3994 8.7090 297° West  Level FlightAware Approximate
Tue 09:43:00 AM 46.4548 8.5468 296° West  Level FlightAware Approximate
Tue 09:44:00 AM 46.5100 8.3842 296° West  Level FlightAware Approximate
Tue 09:45:00 AM 46.5650 8.2214 296° West  Level FlightAware Approximate
Tue 09:46:00 AM 46.6198 8.0582 296° West  Level FlightAware Approximate
Tue 09:47:00 AM 46.6743 7.8946 296° West  Level FlightAware Approximate
Tue 09:48:00 AM 46.7285 7.7308 296° West  Level FlightAware Approximate
Tue 09:49:00 AM 46.7826 7.5666 296° West  Level FlightAware Approximate
Tue 09:50:00 AM 46.8364 7.4021 296° West  Level FlightAware Approximate
Tue 09:51:00 AM 46.8900 7.2372 295° West  Level FlightAware Approximate
Tue 09:52:00 AM 46.9433 7.0720 295° West  Level FlightAware Approximate
Tue 09:53:00 AM 46.9964 6.9065 295° West  Level FlightAware Approximate
Tue 09:54:00 AM 47.0493 6.7407 295° West  Level FlightAware Approximate
Tue 09:55:00 AM 47.1018 6.5745 295° West  Level FlightAware Approximate
Tue 09:56:00 AM 47.1540 6.4079 295° West  Level FlightAware Approximate
Tue 09:57:00 AM 47.2059 6.2409 295° West  Level FlightAware Approximate
Tue 09:58:00 AM 47.2576 6.0736 295° West  Level FlightAware Approximate
Tue 09:59:00 AM 47.3091 5.9060 294° West  Level FlightAware Approximate
Tue 10:00:00 AM 47.3602 5.7380 294° West  Level FlightAware Approximate
Tue 10:01:00 AM 47.4112 5.5698 294° West  Level FlightAware Approximate
Tue 10:02:00 AM 47.4619 5.4012 294° West  Level FlightAware Approximate
Tue 10:03:00 AM 47.5124 5.2323 294° West  Level FlightAware Approximate
Tue 10:04:00 AM 47.5626 5.0630 294° West  Level FlightAware Approximate
Tue 10:05:00 AM 47.6125 4.8934 294° West  Level FlightAware Approximate
Tue 10:06:00 AM 47.6622 4.7236 294° West  Level FlightAware Approximate
Tue 10:07:00 AM 47.7117 4.5533 293° West  Level FlightAware Approximate
Tue 10:08:00 AM 47.7609 4.3828 293° West  Level FlightAware Approximate
Tue 10:09:00 AM 47.8098 4.2119 293° West  Level FlightAware Approximate
Tue 10:10:00 AM 47.8586 4.0408 293° West  Level FlightAware Approximate
Tue 10:11:00 AM 47.9070 3.8693 293° West  Level FlightAware Approximate
Tue 10:12:00 AM 47.9552 3.6974 293° West  Level FlightAware Approximate
Tue 10:13:00 AM 48.0031 3.5253 293° West  Level FlightAware Approximate
Tue 10:14:00 AM 48.0508 3.3528 293° West  Level FlightAware Approximate
Tue 10:15:00 AM 48.0982 3.1801 292° West  Level FlightAware Approximate
Tue 10:16:00 AM 48.1453 3.0070 292° West  Level FlightAware Approximate
Tue 10:17:00 AM 48.1922 2.8335 292° West  Level FlightAware Approximate
Tue 10:18:00 AM 48.2389 2.6598 292° West  Level FlightAware Approximate
Tue 10:19:00 AM 48.2852 2.4858 292° West  Level FlightAware Approximate
Tue 10:20:00 AM 48.3313 2.3114 292° West  Level FlightAware Approximate
Tue 10:21:00 AM 48.3772 2.1367 292° West  Level FlightAware Approximate
Tue 10:22:00 AM 48.4228 1.9617 291° West  Level FlightAware Approximate
Tue 10:23:00 AM 48.4681 1.7864 291° West  Level FlightAware Approximate
Tue 10:24:00 AM 48.5131 1.6108 291° West  Level FlightAware Approximate
Tue 10:25:00 AM 48.5579 1.4349 291° West  Level FlightAware Approximate
Tue 10:26:00 AM 48.6024 1.2586 291° West  Level FlightAware Approximate
Tue 10:27:00 AM 48.6466 1.0821 291° West  Level FlightAware Approximate
Tue 10:28:00 AM 48.6906 0.9052 291° West  Level FlightAware Approximate
Tue 10:29:00 AM 48.7343 0.7281 291° West  Level FlightAware Approximate
Tue 10:30:00 AM 48.7777 0.5506 290° West  Level FlightAware Approximate
Tue 10:31:00 AM 48.8209 0.3728 290° West  Level FlightAware Approximate
Tue 10:32:00 AM 48.8638 0.1947 290° West  Level FlightAware Approximate
Tue 10:33:00 AM 48.9064 0.0163 290° West  Level FlightAware Approximate
Tue 10:34:00 AM 48.9487 -0.1624 290° West  Level FlightAware Approximate
Tue 10:35:00 AM 48.9907 -0.3414 290° West  Level FlightAware Approximate
Tue 10:36:00 AM 49.0325 -0.5207 290° West  Level FlightAware Approximate
Tue 10:37:00 AM 49.0740 -0.7003 289° West  Level FlightAware Approximate
Tue 10:38:00 AM 49.1152 -0.8802 289° West  Level FlightAware Approximate
Tue 10:39:00 AM 49.1562 -1.0604 289° West  Level FlightAware Approximate
Tue 10:40:00 AM 49.1968 -1.2408 289° West  Level FlightAware Approximate
Tue 10:41:00 AM 49.2372 -1.4216 289° West  Level FlightAware Approximate
Tue 10:42:00 AM 49.2773 -1.6027 289° West  Level FlightAware Approximate
Tue 10:43:00 AM 49.3171 -1.7841 289° West  Level FlightAware Approximate
Tue 10:44:00 AM 49.3566 -1.9658 289° West  Level FlightAware Approximate
Tue 10:45:00 AM 49.3959 -2.1477 288° West  Level FlightAware Approximate
Tue 10:46:00 AM 49.4348 -2.3300 288° West  Level FlightAware Approximate
Tue 10:47:00 AM 49.4735 -2.5125 288° West  Level FlightAware Approximate
Tue 10:48:00 AM 49.5119 -2.6953 288° West  Level FlightAware Approximate
Tue 10:49:00 AM 49.5500 -2.8785 288° West  Level FlightAware Approximate
Tue 10:50:00 AM 49.5878 -3.0619 288° West  Level FlightAware Approximate
Tue 10:51:00 AM 49.6253 -3.2455 288° West  Level FlightAware Approximate
Tue 10:52:00 AM 49.6625 -3.4295 287° West  Level FlightAware Approximate
Tue 10:53:00 AM 49.6994 -3.6137 287° West  Level FlightAware Approximate
Tue 10:54:00 AM 49.7377 -3.7975 288° West  Level FlightAware Approximate
Tue 10:55:00 AM 49.7757 -3.9815 288° West  Level FlightAware Approximate
Tue 10:56:00 AM 49.8128 -4.1660 287° West  Level FlightAware Approximate
Tue 10:57:00 AM 49.8486 -4.3514 287° West  Level FlightAware Approximate
Tue 10:58:00 AM 49.8841 -4.5370 287° West  Level FlightAware Approximate
Tue 10:59:00 AM 49.9193 -4.7229 286° West  Level FlightAware Approximate
Tue 11:00:00 AM 49.9542 -4.9091 286° West  Level FlightAware Approximate
Tue 11:01:00 AM 49.9888 -5.0955 286° West  Level FlightAware Approximate
Tue 11:02:00 AM 50.0231 -5.2822 286° West  Level FlightAware Approximate
Tue 11:03:00 AM 50.0570 -5.4692 286° West  Level FlightAware Approximate
Tue 11:04:00 AM 50.0907 -5.6564 286° West  Level FlightAware Approximate
Tue 11:05:00 AM 50.1241 -5.8439 286° West  Level FlightAware Approximate
Tue 11:06:00 AM 50.1572 -6.0317 285° West  Level FlightAware Approximate
Tue 11:07:00 AM 50.1900 -6.2197 285° West  Level FlightAware Approximate
Tue 11:08:00 AM 50.2225 -6.4080 285° West  Level FlightAware Approximate
Tue 11:09:00 AM 50.2547 -6.5965 285° West  Level FlightAware Approximate
Tue 11:10:00 AM 50.2865 -6.7853 285° West  Level FlightAware Approximate
Tue 11:11:00 AM 50.3181 -6.9743 285° West  Level FlightAware Approximate
Tue 11:12:00 AM 50.3494 -7.1636 285° West  Level FlightAware Approximate
Tue 11:13:00 AM 50.3803 -7.3532 284° West  Level FlightAware Approximate
Tue 11:14:00 AM 50.4110 -7.5429 284° West  Level FlightAware Approximate
Tue 11:15:00 AM 50.4413 -7.7330 284° West  Level FlightAware Approximate
Tue 11:16:00 AM 50.4713 -7.9232 284° West  Level FlightAware Approximate
Tue 11:17:00 AM 50.5114 -8.1059 284° West  Level FlightAware Approximate
Tue 11:18:00 AM 50.5410 -8.2966 284° West  Level FlightAware Approximate
Tue 11:19:00 AM 50.5703 -8.4875 284° West  Level FlightAware Approximate
Tue 11:20:00 AM 50.5993 -8.6787 284° West  Level FlightAware Approximate
Tue 11:21:00 AM 50.6279 -8.8701 283° West  Level FlightAware Approximate
Tue 11:22:00 AM 50.6563 -9.0618 283° West  Level FlightAware Approximate
Tue 11:23:00 AM 50.6843 -9.2537 283° West  Level FlightAware Approximate
Tue 11:24:00 AM 50.7121 -9.4458 283° West  Level FlightAware Approximate
Tue 11:25:00 AM 50.7395 -9.6381 283° West  Level FlightAware Approximate
Tue 11:26:00 AM 50.7666 -9.8307 283° West  Level FlightAware Approximate
Tue 11:27:00 AM 50.7934 -10.0234 282° West  Level FlightAware Approximate
Tue 11:28:00 AM 50.8198 -10.2164 282° West  Level FlightAware Approximate
Tue 11:29:00 AM 50.8460 -10.4097 282° West  Level FlightAware Approximate
Tue 11:30:00 AM 50.8718 -10.6031 282° West  Level FlightAware Approximate
Tue 11:31:00 AM 50.8973 -10.7968 282° West  Level FlightAware Approximate
Tue 11:32:00 AM 50.9225 -10.9906 282° West  Level FlightAware Approximate
Tue 11:33:00 AM 50.9473 -11.1847 282° West  Level FlightAware Approximate
Tue 11:34:00 AM 50.9719 -11.3789 281° West  Level FlightAware Approximate
Tue 11:35:00 AM 50.9961 -11.5734 281° West  Level FlightAware Approximate
Tue 11:36:00 AM 51.0200 -11.7681 281° West  Level FlightAware Approximate
Tue 11:37:00 AM 51.0436 -11.9630 281° West  Level FlightAware Approximate
Tue 11:38:00 AM 51.0661 -12.1582 280° West  Level FlightAware Approximate
Tue 11:39:00 AM 51.0881 -12.3538 280° West  Level FlightAware Approximate
Tue 11:40:00 AM 51.1097 -12.5495 280° West  Level FlightAware Approximate
Tue 11:41:00 AM 51.1310 -12.7454 280° West  Level FlightAware Approximate
Tue 11:42:00 AM 51.1520 -12.9415 280° West  Level FlightAware Approximate
Tue 11:43:00 AM 51.1727 -13.1378 280° West  Level FlightAware Approximate
Tue 11:44:00 AM 51.1930 -13.3342 279° West  Level FlightAware Approximate
Tue 11:45:00 AM 51.2130 -13.5308 279° West  Level FlightAware Approximate
Tue 11:46:00 AM 51.2327 -13.7276 279° West  Level FlightAware Approximate
Tue 11:47:00 AM 51.2520 -13.9246 279° West  Level FlightAware Approximate
Tue 11:48:00 AM 51.2710 -14.1217 279° West  Level FlightAware Approximate
Tue 11:49:00 AM 51.2896 -14.3189 279° West  Level FlightAware Approximate
Tue 11:50:00 AM 51.3080 -14.5164 279° West  Level FlightAware Approximate
Tue 11:51:00 AM 51.3260 -14.7140 278° West  Level FlightAware Approximate
Tue 11:52:00 AM 51.3437 -14.9117 278° West  Level FlightAware Approximate
Tue 11:53:00 AM 51.3616 -15.1095 278° West  Level FlightAware Approximate
Tue 11:54:00 AM 51.3795 -15.3073 278° West  Level FlightAware Approximate
Tue 11:55:00 AM 51.3971 -15.5053 278° West  Level FlightAware Approximate
Tue 11:56:00 AM 51.4144 -15.7035 278° West  Level FlightAware Approximate
Tue 11:57:00 AM 51.4313 -15.9017 278° West  Level FlightAware Approximate
Tue 11:58:00 AM 51.4479 -16.1002 278° West  Level FlightAware Approximate
Tue 11:59:00 AM 51.4641 -16.2988 278° West  Level FlightAware Approximate
Tue 12:00:00 PM 51.4800 -16.4975 277° West  Level FlightAware Approximate
Tue 12:01:00 PM 51.4956 -16.6963 277° West  Level FlightAware Approximate
Tue 12:02:00 PM 51.5108 -16.8953 277° West  Level FlightAware Approximate
Tue 12:03:00 PM 51.5257 -17.0945 277° West  Level FlightAware Approximate
Tue 12:04:00 PM 51.5403 -17.2937 277° West  Level FlightAware Approximate
Tue 12:05:00 PM 51.5546 -17.4931 277° West  Level FlightAware Approximate
Tue 12:06:00 PM 51.5684 -17.6926 276° West  Level FlightAware Approximate
Tue 12:07:00 PM 51.5820 -17.8922 276° West  Level FlightAware Approximate
Tue 12:08:00 PM 51.5965 -18.1008 276° West  Level Estimated
Tue 12:09:00 PM 51.6107 -18.3095 276° West  Level Estimated
Tue 12:10:00 PM 51.6244 -18.5183 276° West  Level Estimated
Tue 12:11:00 PM 51.6378 -18.7273 276° West  Level Estimated
Tue 12:12:00 PM 51.6509 -18.9363 276° West  Level Estimated
Tue 12:13:00 PM 51.6635 -19.1455 276° West  Level Estimated
Tue 12:14:00 PM 51.6758 -19.3549 275° West  Level Estimated
Tue 12:15:00 PM 51.6877 -19.5643 275° West  Level Estimated
Tue 12:16:00 PM 51.6993 -19.7738 275° West  Level Estimated
Tue 12:17:00 PM 51.7105 -19.9835 275° West  Level Estimated
Tue 12:18:00 PM 51.7213 -20.1932 275° West  Level Estimated
Tue 12:19:00 PM 51.7317 -20.4030 275° West  Level Estimated
Tue 12:20:00 PM 51.7417 -20.6130 275° West  Level Estimated
Tue 12:21:00 PM 51.7514 -20.8230 274° West  Level Estimated
Tue 12:22:00 PM 51.7607 -21.0331 274° West  Level Estimated
Tue 12:23:00 PM 51.7696 -21.2433 274° West  Level Estimated
Tue 12:24:00 PM 51.7782 -21.4536 274° West  Level Estimated
Tue 12:25:00 PM 51.7864 -21.6640 274° West  Level Estimated
Tue 12:26:00 PM 51.7942 -21.8744 274° West  Level Estimated
Tue 12:27:00 PM 51.8016 -22.0849 273° West  Level Estimated
Tue 12:28:00 PM 51.8087 -22.2955 273° West  Level Estimated
Tue 12:29:00 PM 51.8153 -22.5061 273° West  Level Estimated
Tue 12:30:00 PM 51.8216 -22.7168 273° West  Level Estimated
Tue 12:31:00 PM 51.8276 -22.9276 273° West  Level Estimated
Tue 12:32:00 PM 51.8331 -23.1384 273° West  Level Estimated
Tue 12:33:00 PM 51.8383 -23.3492 272° West  Level Estimated
Tue 12:34:00 PM 51.8431 -23.5602 272° West  Level Estimated
Tue 12:35:00 PM 51.8475 -23.7711 272° West  Level Estimated
Tue 12:36:00 PM 51.8515 -23.9821 272° West  Level Estimated
Tue 12:37:00 PM 51.8552 -24.1931 272° West  Level Estimated
Tue 12:38:00 PM 51.8585 -24.4042 272° West  Level Estimated
Tue 12:39:00 PM 51.8614 -24.6153 271° West  Level Estimated
Tue 12:40:00 PM 51.8639 -24.8264 271° West  Level Estimated
Tue 12:41:00 PM 51.8660 -25.0375 271° West  Level Estimated
Tue 12:42:00 PM 51.8678 -25.2479 271° West  Level Estimated
Tue 12:43:00 PM 51.8692 -25.4583 271° West  Level Estimated
Tue 12:44:00 PM 51.8702 -25.6688 271° West  Level Estimated
Tue 12:45:00 PM 51.8708 -25.8792 270° West  Level Estimated
Tue 12:46:00 PM 51.8711 -26.0897 270° West  Level Estimated
Tue 12:47:00 PM 51.8710 -26.3002 270° West  Level Estimated
Tue 12:48:00 PM 51.8705 -26.5106 270° West  Level Estimated
Tue 12:49:00 PM 51.8696 -26.7211 270° West  Level Estimated
Tue 12:50:00 PM 51.8684 -26.9315 270° West  Level Estimated
Tue 12:51:00 PM 51.8668 -27.1419 269° West  Level Estimated
Tue 12:52:00 PM 51.8648 -27.3523 269° West  Level Estimated
Tue 12:53:00 PM 51.8624 -27.5627 269° West  Level Estimated
Tue 12:54:00 PM 51.8597 -27.7731 269° West  Level Estimated
Tue 12:55:00 PM 51.8566 -27.9834 269° West  Level Estimated
Tue 12:56:00 PM 51.8531 -28.1937 269° West  Level Estimated
Tue 12:57:00 PM 51.8492 -28.4040 268° West  Level Estimated
Tue 12:58:00 PM 51.8450 -28.6142 268° West  Level Estimated
Tue 12:59:00 PM 51.8404 -28.8244 268° West  Level Estimated
Tue 01:00:00 PM 51.8354 -29.0346 268° West  Level Estimated
Tue 01:01:00 PM 51.8300 -29.2447 268° West  Level Estimated
Tue 01:02:00 PM 51.8243 -29.4547 268° West  Level Estimated
Tue 01:03:00 PM 51.8182 -29.6647 267° West  Level Estimated
Tue 01:04:00 PM 51.8117 -29.8746 267° West  Level Estimated
Tue 01:05:00 PM 51.8048 -30.0845 267° West  Level Estimated
Tue 01:06:00 PM 51.7976 -30.2943 267° West  Level Estimated
Tue 01:07:00 PM 51.7900 -30.5041 267° West  Level Estimated
Tue 01:08:00 PM 51.7820 -30.7137 267° West  Level Estimated
Tue 01:09:00 PM 51.7737 -30.9233 266° West  Level Estimated
Tue 01:10:00 PM 51.7649 -31.1328 266° West  Level Estimated
Tue 01:11:00 PM 51.7559 -31.3423 266° West  Level Estimated
Tue 01:12:00 PM 51.7464 -31.5516 266° West  Level Estimated
Tue 01:13:00 PM 51.7365 -31.7608 266° West  Level Estimated
Tue 01:14:00 PM 51.7263 -31.9700 266° West  Level Estimated
Tue 01:15:00 PM 51.7158 -32.1791 265° West  Level Estimated
Tue 01:16:00 PM 51.7048 -32.3880 265° West  Level Estimated
Tue 01:17:00 PM 51.6935 -32.5969 265° West  Level Estimated
Tue 01:18:00 PM 51.6818 -32.8056 265° West  Level Estimated
Tue 01:19:00 PM 51.6697 -33.0143 265° West  Level Estimated
Tue 01:20:00 PM 51.6573 -33.2228 265° West  Level Estimated
Tue 01:21:00 PM 51.6445 -33.4312 264° West  Level Estimated
Tue 01:22:00 PM 51.6313 -33.6395 264° West  Level Estimated
Tue 01:23:00 PM 51.6178 -33.8477 264° West  Level Estimated
Tue 01:24:00 PM 51.6039 -34.0557 264° West  Level Estimated
Tue 01:25:00 PM 51.5896 -34.2636 264° West  Level Estimated
Tue 01:26:00 PM 51.5750 -34.4714 264° West  Level Estimated
Tue 01:27:00 PM 51.5600 -34.6791 263° West  Level Estimated
Tue 01:28:00 PM 51.5446 -34.8866 263° West  Level Estimated
Tue 01:29:00 PM 51.5289 -35.0940 263° West  Level Estimated
Tue 01:30:00 PM 51.5127 -35.3012 263° West  Level Estimated
Tue 01:31:00 PM 51.4963 -35.5083 263° West  Level Estimated
Tue 01:32:00 PM 51.4794 -35.7152 263° West  Level Estimated
Tue 01:33:00 PM 51.4622 -35.9220 262° West  Level Estimated
Tue 01:34:00 PM 51.4447 -36.1286 262° West  Level Estimated
Tue 01:35:00 PM 51.4268 -36.3350 262° West  Level Estimated
Tue 01:36:00 PM 51.4085 -36.5413 262° West  Level Estimated
Tue 01:37:00 PM 51.3898 -36.7474 262° West  Level Estimated
Tue 01:38:00 PM 51.3708 -36.9534 262° West  Level Estimated
Tue 01:39:00 PM 51.3514 -37.1592 262° West  Level Estimated
Tue 01:40:00 PM 51.3317 -37.3648 261° West  Level Estimated
Tue 01:41:00 PM 51.3116 -37.5702 261° West  Level Estimated
Tue 01:42:00 PM 51.2912 -37.7755 261° West  Level Estimated
Tue 01:43:00 PM 51.2704 -37.9805 261° West  Level Estimated
Tue 01:44:00 PM 51.2492 -38.1854 261° West  Level Estimated
Tue 01:45:00 PM 51.2277 -38.3901 261° West  Level Estimated
Tue 01:46:00 PM 51.2058 -38.5946 260° West  Level Estimated
Tue 01:47:00 PM 51.1835 -38.7988 260° West  Level Estimated
Tue 01:48:00 PM 51.1609 -39.0029 260° West  Level Estimated
Tue 01:49:00 PM 51.1380 -39.2068 260° West  Level Estimated
Tue 01:50:00 PM 51.1147 -39.4105 260° West  Level Estimated
Tue 01:51:00 PM 51.0910 -39.6140 260° West  Level Estimated
Tue 01:52:00 PM 51.0670 -39.8173 259° West  Level Estimated
Tue 01:53:00 PM 51.0427 -40.0203 259° West  Level Estimated
Tue 01:54:00 PM 51.0180 -40.2232 259° West  Level Estimated
Tue 01:55:00 PM 50.9929 -40.4258 259° West  Level Estimated
Tue 01:56:00 PM 50.9675 -40.6282 259° West  Level Estimated
Tue 01:57:00 PM 50.9417 -40.8304 259° West  Level Estimated
Tue 01:58:00 PM 50.9156 -41.0324 258° West  Level Estimated
Tue 01:59:00 PM 50.8892 -41.2341 258° West  Level Estimated
Tue 02:00:00 PM 50.8624 -41.4356 258° West  Level Estimated
Tue 02:01:00 PM 50.8352 -41.6369 258° West  Level Estimated
Tue 02:02:00 PM 50.8077 -41.8379 258° West  Level Estimated
Tue 02:03:00 PM 50.7799 -42.0387 258° West  Level Estimated
Tue 02:04:00 PM 50.7517 -42.2393 258° West  Level Estimated
Tue 02:05:00 PM 50.7232 -42.4396 257° West  Level Estimated
Tue 02:06:00 PM 50.6943 -42.6396 257° West  Level Estimated
Tue 02:07:00 PM 50.6651 -42.8395 257° West  Level Estimated
Tue 02:08:00 PM 50.6355 -43.0390 257° West  Level Estimated
Tue 02:09:00 PM 50.6056 -43.2383 257° West  Level Estimated
Tue 02:10:00 PM 50.5754 -43.4374 257° West  Level Estimated
Tue 02:11:00 PM 50.5448 -43.6362 256° West  Level Estimated
Tue 02:12:00 PM 50.5139 -43.8348 256° West  Level Estimated
Tue 02:13:00 PM 50.4826 -44.0331 256° West  Level Estimated
Tue 02:14:00 PM 50.4510 -44.2311 256° West  Level Estimated
Tue 02:15:00 PM 50.4191 -44.4288 256° West  Level Estimated
Tue 02:16:00 PM 50.3869 -44.6263 256° West  Level Estimated
Tue 02:17:00 PM 50.3543 -44.8236 256° West  Level Estimated
Tue 02:18:00 PM 50.3214 -45.0205 255° West  Level Estimated
Tue 02:19:00 PM 50.2881 -45.2172 255° West  Level Estimated
Tue 02:20:00 PM 50.2545 -45.4136 255° West  Level Estimated
Tue 02:21:00 PM 50.2206 -45.6097 255° West  Level Estimated
Tue 02:22:00 PM 50.1863 -45.8055 255° West  Level Estimated
Tue 02:23:00 PM 50.1517 -46.0011 255° West  Level Estimated
Tue 02:24:00 PM 50.1169 -46.1964 254° West  Level Estimated
Tue 02:25:00 PM 50.0816 -46.3913 254° West  Level Estimated
Tue 02:26:00 PM 50.0461 -46.5860 254° West  Level Estimated
Tue 02:27:00 PM 50.0102 -46.7805 254° West  Level Estimated
Tue 02:28:00 PM 49.9740 -46.9746 254° West  Level Estimated
Tue 02:29:00 PM 49.9374 -47.1684 254° West  Level Estimated
Tue 02:30:00 PM 49.9006 -47.3619 254° West  Level Estimated
Tue 02:31:00 PM 49.8634 -47.5552 253° West  Level Estimated
Tue 02:32:00 PM 49.8259 -47.7481 253° West  Level Estimated
Tue 02:33:00 PM 49.7881 -47.9407 253° West  Level Estimated
Tue 02:34:00 PM 49.7500 -48.1330 253° West  Level Estimated
Tue 02:35:00 PM 49.7115 -48.3251 253° West  Level Estimated
Tue 02:36:00 PM 49.6728 -48.5168 253° West  Level Estimated
Tue 02:37:00 PM 49.6337 -48.7082 253° West  Level Estimated
Tue 02:38:00 PM 49.5943 -48.8993 252° West  Level Estimated
Tue 02:39:00 PM 49.5546 -49.0901 252° West  Level Estimated
Tue 02:40:00 PM 49.5145 -49.2806 252° West  Level Estimated
Tue 02:41:00 PM 49.4742 -49.4708 252° West  Level Estimated
Tue 02:42:00 PM 49.4336 -49.6607 252° West  Level Estimated
Tue 02:43:00 PM 49.3926 -49.8502 252° West  Level Estimated
Tue 02:44:00 PM 49.3513 -50.0394 252° West  Level Estimated
Tue 02:45:00 PM 49.3097 -50.2284 251° West  Level Estimated
Tue 02:46:00 PM 49.2678 -50.4169 251° West  Level Estimated
Tue 02:47:00 PM 49.2257 -50.6052 251° West  Level Estimated
Tue 02:48:00 PM 49.1832 -50.7932 251° West  Level Estimated
Tue 02:49:00 PM 49.1404 -50.9808 251° West  Level Estimated
Tue 02:50:00 PM 49.0973 -51.1681 251° West  Level Estimated
Tue 02:51:00 PM 49.0538 -51.3550 251° West  Level Estimated
Tue 02:52:00 PM 49.0101 -51.5417 250° West  Level Estimated
Tue 02:53:00 PM 48.9661 -51.7280 250° West  Level Estimated
Tue 02:54:00 PM 48.9218 -51.9140 250° West  Level Estimated
Tue 02:55:00 PM 48.8772 -52.0997 250° West  Level Estimated
Tue 02:56:00 PM 48.8323 -52.2850 250° West  Level Estimated
Tue 02:57:00 PM 48.7871 -52.4700 250° West  Level Estimated
Tue 02:58:00 PM 48.7416 -52.6546 250° West  Level Estimated
Tue 02:59:00 PM 48.6958 -52.8390 249° West  Level Estimated
Tue 02:59:52 PM 54.0000 -54.3333 249° West 480 552 35,900  Level Gander Center
Tue 03:00:00 PM 48.6497 -53.0229 249° West  Level Estimated
Tue 03:00:52 PM 53.9500 -54.5667 250° West 480 552 35,900  Level Gander Center
Tue 03:01:00 PM 48.6033 -53.2066 249° West  Level Estimated
Tue 03:01:52 PM 53.8833 -54.7833 243° Southwest 480 552 35,900  Level Gander Center
Tue 03:02:00 PM 48.5567 -53.3899 249° West  Level Estimated
Tue 03:02:52 PM 53.8333 -55.0167 250° West 490 564 35,900  Level Gander Center
Tue 03:03:00 PM 48.5097 -53.5729 249° West  Level Estimated
Tue 03:03:56 PM 53.7500 -55.2000 232° Southwest 490 564 35,900  Level Moncton Center
Tue 03:04:00 PM 48.4624 -53.7555 249° West  Level Estimated
Tue 03:04:56 PM 53.6667 -55.3833 233° Southwest 500 575 35,900  Level Moncton Center
Tue 03:05:00 PM 48.4149 -53.9378 249° West  Level Estimated
Tue 03:05:52 PM 53.5833 -55.5333 227° Southwest 490 564 35,900  Level Gander Center
Tue 03:06:52 PM 53.4833 -55.7167 228° Southwest 490 564 35,900  Level Gander Center
Tue 03:07:52 PM 53.4000 -55.9000 233° Southwest 490 564 35,900  Level Gander Center
Tue 03:08:52 PM 53.3167 -56.0500 227° Southwest 490 564 35,900  Level Gander Center
Tue 03:09:52 PM 53.2167 -56.2167 225° Southwest 490 564 35,900  Level Gander Center
Tue 03:10:52 PM 53.1333 -56.4000 233° Southwest 490 564 35,900  Level Gander Center
Tue 03:11:52 PM 53.0333 -56.5833 228° Southwest 490 564 35,900 200 Level Gander Center
Tue 03:12:52 PM 52.9500 -56.7333 227° Southwest 500 575 36,300 800 Climbing Gander Center
Tue 03:13:52 PM 52.8500 -56.9000 225° Southwest 500 575 37,500 800 Climbing Gander Center
Tue 03:14:52 PM 52.7500 -57.0833 228° Southwest 490 564 37,900 200 Climbing Gander Center
Tue 03:15:52 PM 52.6667 -57.2333 228° Southwest 490 564 37,900  Level Gander Center
Tue 03:16:52 PM 52.5667 -57.4000 225° Southwest 490 564 37,900 50 Level Gander Center
Tue 03:17:52 PM 52.4667 -57.5833 228° Southwest 490 564 38,000 50 Climbing Gander Center
Tue 03:18:52 PM 52.3667 -57.7500 226° Southwest 490 564 38,000  Level Gander Center
Tue 03:19:56 PM 52.2833 -57.9167 231° Southwest 490 564 38,000  Level Moncton Center
Tue 03:20:56 PM 52.1833 -58.0667 223° Southwest 490 564 38,000  Level Moncton Center
Tue 03:21:52 PM 52.1000 -58.2333 231° Southwest 490 564 38,000  Level Gander Center
Tue 03:22:52 PM 52.0000 -58.4000 226° Southwest 490 564 38,000  Level Gander Center
Tue 03:23:52 PM 51.9167 -58.5500 228° Southwest 500 575 38,000  Level Gander Center
Tue 03:24:52 PM 51.8167 -58.7167 226° Southwest 500 575 38,000  Level Gander Center
Tue 03:25:52 PM 51.7167 -58.8833 226° Southwest 490 564 38,000  Level Gander Center
Tue 03:26:52 PM 51.6167 -59.0167 220° Southwest 490 564 38,000  Level Gander Center
Tue 03:27:52 PM 51.5167 -59.1833 226° Southwest 490 564 38,000  Level Gander Center
Tue 03:28:52 PM 51.4167 -59.3500 226° Southwest 490 564 38,000  Level Gander Center
Tue 03:29:52 PM 51.3333 -59.5167 231° Southwest 490 564 38,000  Level Gander Center
Tue 03:30:56 PM 51.2167 -59.6667 219° Southwest 490 564 38,000  Level Moncton Center
Tue 03:31:56 PM 51.1500 -59.8000 231° Southwest 490 564 38,000  Level Moncton Center
Tue 03:32:52 PM 51.0500 -59.9833 229° Southwest 500 575 38,000  Level Gander Center
Tue 03:33:52 PM 50.9500 -60.1167 220° Southwest 490 564 38,000  Level Gander Center
Tue 03:34:52 PM 50.8500 -60.2833 226° Southwest 500 575 38,000  Level Gander Center
Tue 03:35:52 PM 50.7500 -60.4333 224° Southwest 490 564 38,000  Level Gander Center
Tue 03:36:52 PM 50.6500 -60.6000 227° Southwest 490 564 38,000  Level Gander Center
Tue 03:37:52 PM 50.5500 -60.7333 220° Southwest 490 564 38,000  Level Gander Center
Tue 03:38:52 PM 50.4500 -60.8833 224° Southwest 490 564 38,000  Level Gander Center
Tue 03:39:52 PM 50.3667 -61.0167 226° Southwest 490 564 38,000  Level Gander Center
Tue 03:40:52 PM 50.2667 -61.1833 227° Southwest 490 564 38,000  Level Gander Center
Tue 03:41:52 PM 50.1667 -61.3333 224° Southwest 490 564 38,000  Level Gander Center
Tue 03:42:52 PM 50.0667 -61.4833 224° Southwest 490 564 38,000  Level Gander Center
Tue 03:43:52 PM 49.9667 -61.6167 221° Southwest 480 552 38,000  Level Gander Center
Tue 03:44:52 PM 49.8833 -61.7500 226° Southwest 480 552 38,000  Level Gander Center
Tue 03:45:52 PM 49.7833 -61.9000 224° Southwest 480 552 38,000  Level Gander Center
Tue 03:46:56 PM 49.6833 -62.0667 227° Southwest 480 552 38,000  Level Moncton Center
Tue 03:47:56 PM 49.5667 -62.2000 217° Southwest 480 552 38,000  Level Moncton Center
Tue 03:48:56 PM 49.4833 -62.3333 226° Southwest 480 552 38,000  Level Moncton Center
Tue 03:49:52 PM 49.3833 -62.4833 224° Southwest 490 564 38,000  Level Gander Center
Tue 03:50:52 PM 49.3000 -62.6333 230° Southwest 500 575 38,000  Level Gander Center
Tue 03:51:52 PM 49.1667 -62.7833 216° Southwest 500 575 38,000  Level Gander Center
Tue 03:52:52 PM 49.0833 -62.9167 226° Southwest 500 575 38,000  Level Gander Center
Tue 03:53:52 PM 48.9833 -63.0667 225° Southwest 510 587 38,000  Level Gander Center
Tue 03:54:52 PM 48.8667 -63.2167 220° Southwest 500 575 38,000  Level Gander Center
Tue 03:55:52 PM 48.7833 -63.3667 230° Southwest 500 575 38,000  Level Gander Center
Tue 03:56:52 PM 48.6833 -63.5167 225° Southwest 500 575 38,000  Level Gander Center
Tue 03:57:52 PM 48.5667 -63.6333 214° Southwest 490 564 38,000  Level Gander Center
Tue 03:58:56 PM 48.4667 -63.7833 225° Southwest 480 552 38,000  Level Moncton Center
Tue 03:59:56 PM 48.3667 -63.9167 222° Southwest 470 541 38,000  Level Moncton Center
Tue 04:00:56 PM 48.2667 -64.0500 222° Southwest 470 541 38,000  Level Moncton Center
Tue 04:01:56 PM 48.1667 -64.1667 218° Southwest 460 529 38,000  Level Moncton Center
Tue 04:02:56 PM 48.0667 -64.3000 222° Southwest 460 529 38,000  Level Moncton Center
Tue 04:03:56 PM 47.9833 -64.4167 223° Southwest 460 529 38,000  Level Moncton Center
Tue 04:04:56 PM 47.8833 -64.5667 225° Southwest 460 529 38,000  Level Moncton Center
Tue 04:05:56 PM 47.7833 -64.6667 214° Southwest 450 518 38,000  Level Moncton Center
Tue 04:06:56 PM 47.7000 -64.8167 230° Southwest 450 518 38,000  Level Moncton Center
Tue 04:07:56 PM 47.6000 -64.9500 222° Southwest 450 518 38,000  Level Moncton Center
Tue 04:08:56 PM 47.5167 -65.0333 214° Southwest 450 518 38,000  Level Moncton Center
Tue 04:09:56 PM 47.4167 -65.1833 225° Southwest 450 518 38,000  Level Moncton Center
Tue 04:10:56 PM 47.3333 -65.2833 219° Southwest 450 518 38,000  Level Moncton Center
Tue 04:11:56 PM 47.2333 -65.4333 226° Southwest 450 518 38,000  Level Moncton Center
Tue 04:12:56 PM 47.1333 -65.5500 218° Southwest 450 518 38,000  Level Moncton Center
Tue 04:13:56 PM 47.0167 -65.6667 214° Southwest 460 529 38,000  Level Moncton Center
Tue 04:14:56 PM 46.9333 -65.8000 228° Southwest 460 529 38,000  Level Moncton Center
Tue 04:20:56 PM 46.3400 -66.5470 228° Southwest 482 555 38,000  Level FlightAware ADS-B
Tue 04:21:26 PM 46.2860 -66.6130 220° Southwest 481 554 38,000  Level FlightAware ADS-B
Tue 04:22:08 PM 46.2150 -66.7000 220° Southwest 478 550 38,000  Level FlightAware ADS-B
Tue 04:22:54 PM 46.1360 -66.7960 220° Southwest 477 549 38,000  Level FlightAware ADS-B
Tue 04:23:29 PM 46.0770 -66.8650 219° Southwest 476 548 38,000  Level FlightAware ADS-B
Tue 04:24:12 PM 46.0050 -66.9520 220° Southwest 475 547 38,000  Level FlightAware ADS-B
Tue 04:24:52 PM 45.9390 -67.0310 220° Southwest 468 539 38,000  Level FlightAware ADS-B
Tue 04:25:28 PM 45.8790 -67.1040 220° Southwest 476 548 38,000  Level FlightAware ADS-B
Tue 04:26:07 PM 45.8110 -67.1850 220° Southwest 477 549 38,000  Level FlightAware ADS-B
Tue 04:26:52 PM 45.7350 -67.2750 220° Southwest 479 551 38,000  Level FlightAware ADS-B
Tue 04:27:32 PM 45.6690 -67.3520 219° Southwest 481 554 38,000  Level FlightAware ADS-B
Tue 04:28:12 PM 45.5970 -67.4370 220° Southwest 482 555 38,000  Level FlightAware ADS-B
Tue 04:28:58 PM 45.5190 -67.5290 220° Southwest 484 557 38,000  Level FlightAware ADS-B
Tue 04:29:42 PM 45.4420 -67.6200 220° Southwest 483 556 38,000  Level FlightAware ADS-B
Tue 04:30:18 PM 45.3790 -67.6920 219° Southwest 483 556 38,000  Level FlightAware ADS-B
Tue 04:30:57 PM 45.3160 -67.7760 223° Southwest 471 542 38,000  Level FlightAware ADS-B
Tue 04:31:37 PM 45.2560 -67.8680 227° Southwest 470 541 38,000  Level FlightAware ADS-B
Tue 04:32:27 PM 45.1830 -67.9850 229° Southwest 472 543 38,000  Level FlightAware ADS-B
Tue 04:33:12 PM 45.1170 -68.0890 228° Southwest 477 549 38,000  Level FlightAware ADS-B
Tue 04:33:53 PM 45.0550 -68.1840 227° Southwest 477 549 38,000  Level FlightAware ADS-B
Tue 04:34:27 PM 45.0040 -68.2650 228° Southwest 477 549 38,000  Level FlightAware ADS-B
Tue 04:35:08 PM 44.9460 -68.3550 228° Southwest 477 549 38,000  Level FlightAware ADS-B
Tue 04:35:51 PM 44.8790 -68.4580 227° Southwest 477 549 38,000  Level FlightAware ADS-B
Tue 04:36:33 PM 44.8170 -68.5540 228° Southwest 477 549 38,000  Level FlightAware ADS-B
Tue 04:37:15 PM 44.7530 -68.6510 227° Southwest 479 551 38,000  Level FlightAware ADS-B
Tue 04:37:58 PM 44.6900 -68.7470 227° Southwest 480 552 38,000  Level FlightAware ADS-B
Tue 04:38:41 PM 44.6250 -68.8460 227° Southwest 482 555 38,000  Level FlightAware ADS-B
Tue 04:39:19 PM 44.5690 -68.9310 227° Southwest 483 556 38,000  Level FlightAware ADS-B
Tue 04:39:59 PM 44.5060 -69.0280 228° Southwest 484 557 38,000  Level FlightAware ADS-B
Tue 04:40:39 PM 44.4470 -69.1170 227° Southwest 485 558 38,000  Level FlightAware ADS-B
Tue 04:41:20 PM 44.3840 -69.2090 226° Southwest 485 558 38,000  Level FlightAware ADS-B
Tue 04:42:03 PM 44.3110 -69.3060 224° Southwest 491 565 38,000  Level FlightAware ADS-B
Tue 04:42:43 PM 44.2420 -69.3840 219° Southwest 492 566 38,000  Level FlightAware ADS-B
Tue 04:43:28 PM 44.1640 -69.4710 219° Southwest 492 566 38,000  Level FlightAware ADS-B
Tue 04:44:07 PM 44.0910 -69.5520 219° Southwest 492 566 38,000  Level FlightAware ADS-B
Tue 04:44:41 PM 44.0300 -69.6180 218° Southwest 493 567 38,000  Level FlightAware ADS-B
Tue 04:45:28 PM 43.9480 -69.7060 218° Southwest 494 568 38,000  Level FlightAware ADS-B
Tue 04:46:07 PM 43.8760 -69.7840 218° Southwest 494 568 38,000  Level FlightAware ADS-B
Tue 04:46:47 PM 43.8020 -69.8640 218° Southwest 494 568 38,000  Level FlightAware ADS-B
Tue 04:47:30 PM 43.7270 -69.9460 218° Southwest 493 567 38,000  Level FlightAware ADS-B
Tue 04:48:15 PM 43.6450 -70.0340 218° Southwest 493 567 38,000  Level FlightAware ADS-B
Tue 04:48:55 PM 43.5720 -70.1120 218° Southwest 494 568 38,000  Level FlightAware ADS-B
Tue 04:49:37 PM 43.4960 -70.1930 218° Southwest 494 568 38,000  Level FlightAware ADS-B
Tue 04:50:19 PM 43.4210 -70.2720 217° Southwest 495 570 38,000  Level FlightAware ADS-B
Tue 04:51:03 PM 43.3360 -70.3500 214° Southwest 498 573 38,000  Level FlightAware ADS-B
Tue 04:51:45 PM 43.2530 -70.4170 210° Southwest 499 574 38,000  Level FlightAware ADS-B
Tue 04:52:25 PM 43.1720 -70.4780 209° Southwest 498 573 38,000  Level FlightAware ADS-B
Tue 04:53:07 PM 43.0870 -70.5430 209° Southwest 498 573 38,000  Level FlightAware ADS-B
Tue 04:53:43 PM 43.0160 -70.6000 210° Southwest 498 573 38,000  Level FlightAware ADS-B
Tue 04:54:27 PM 42.9280 -70.6700 210° Southwest 499 574 38,000  Level FlightAware ADS-B
Tue 04:55:07 PM 42.8480 -70.7330 210° Southwest 499 574 38,000  Level FlightAware ADS-B
Tue 04:55:47 PM 42.7680 -70.7950 210° Southwest 498 573 38,000  Level FlightAware ADS-B
Tue 04:56:31 PM 42.6800 -70.8640 210° Southwest 496 571 38,000  Level FlightAware ADS-B
Tue 04:57:11 PM 42.6010 -70.9240 209° Southwest 496 571 38,000  Level FlightAware ADS-B
Tue 04:57:56 PM 42.5140 -70.9920 210° Southwest 495 570 38,000  Level FlightAware ADS-B
Tue 04:58:35 PM 42.4350 -71.0530 210° Southwest 495 570 38,000  Level FlightAware ADS-B
Tue 04:59:15 PM 42.3530 -71.1160 210° Southwest 495 570 38,000  Level FlightAware ADS-B
Tue 04:59:59 PM 42.2650 -71.1830 209° Southwest 497 572 38,000  Level FlightAware ADS-B
Tue 05:00:55 PM 42.1570 -71.2650 209° Southwest 498 573 38,000  Level FlightAware ADS-B
Tue 05:01:35 PM 42.0800 -71.3230 209° Southwest 498 573 38,000 -706 Level FlightAware ADS-B
Tue 05:02:20 PM 41.9850 -71.3960 210° Southwest 497 572 37,000 -1,271 Descending FlightAware ADS-B
Tue 05:03:00 PM 41.9060 -71.4550 209° Southwest 497 572 36,200 -1,275 Descending FlightAware ADS-B
Tue 05:03:40 PM 41.8260 -71.5150 209° Southwest 479 551 35,300 -1,862 Descending FlightAware ADS-B
Tue 05:04:27 PM 41.7380 -71.5800 209° Southwest 476 548 33,500 -2,329 Descending FlightAware ADS-B
Tue 05:05:05 PM 41.6640 -71.6350 209° Southwest 463 533 32,000 -2,301 Descending FlightAware ADS-B
Tue 05:05:40 PM 41.5970 -71.6840 209° Southwest 462 532 30,700 -1,255 Descending FlightAware ADS-B
Tue 05:06:55 PM 41.4710 -71.7750 208° Southwest 456 525 29,700 -1,512 Descending FlightAware ADS-B
Tue 05:07:43 PM 41.3870 -71.8380 209° Southwest 427 491 27,600 -1,500 Descending FlightAware ADS-B
Tue 05:08:19 PM 41.3340 -71.8770 209° Southwest 427 491 27,600  Level FlightAware ADS-B
Tue 05:09:07 PM 41.2630 -71.9290 209° Southwest 427 491 27,600  Level FlightAware ADS-B
Tue 05:09:43 PM 41.2110 -71.9680 209° Southwest 427 491 27,600 -4,452 Level FlightAware ADS-B
Tue 05:10:09 PM 41.2010 -72.1260 265° West 395 455 23,000 -4,246 Descending FlightAware ADS-B
Tue 05:10:48 PM 41.1730 -72.1970 242° Southwest 395 455 23,000 -990 Level FlightAware ADS-B
Tue 05:11:46 PM 41.1250 -72.3150 242° Southwest 390 449 21,400 -990 Descending FlightAware ADS-B
Tue 05:12:25 PM 41.0970 -72.3850 242° Southwest 390 449 21,400  Level FlightAware ADS-B
Tue 05:13:13 PM 41.0630 -72.4710 242° Southwest 390 449 21,400  Level FlightAware ADS-B
Tue 05:13:49 PM 41.0370 -72.5360 242° Southwest 390 449 21,400  Level FlightAware ADS-B
Tue 05:14:26 PM 41.0100 -72.6020 242° Southwest 390 449 21,400 -4,299 Level FlightAware ADS-B
Tue 05:16:03 PM 40.9000 -72.8280 237° Southwest 316 364 11,800 -4,028 Descending FlightAware ADS-B
Tue 05:16:49 PM 40.8460 -72.8800 216° Southwest 308 354 11,800 -207 Level FlightAware ADS-B
Tue 05:17:30 PM 40.8040 -72.9300 222° Southwest 305 351 11,500 -1,000 Descending FlightAware ADS-B
Tue 05:18:13 PM 40.7590 -72.9870 224° Southwest 302 348 10,400 -1,417 Descending FlightAware ADS-B
Tue 05:18:42 PM 40.7300 -73.0230 223° Southwest 298 343 9,800 -1,179 Descending FlightAware ADS-B
Tue 05:19:09 PM 40.7150 -73.0650 245° Southwest 284 327 9,300 -1,200 Descending FlightAware ADS-B
Tue 05:19:17 PM 40.7140 -73.0790 265° West 282 325 9,100 -1,333 Descending FlightAware ADS-B
Tue 05:19:45 PM 40.7110 -73.1260 265° West 279 321 8,500 -1,269 Descending FlightAware ADS-B
Tue 05:20:09 PM 40.7080 -73.1670 264° West 281 323 8,000 -1,000 Descending FlightAware ADS-B
Tue 05:20:39 PM 40.7050 -73.2190 266° West 281 323 7,600 -750 Descending FlightAware ADS-B
Tue 05:20:49 PM 40.7040 -73.2360 266° West 281 323 7,500 -600 Descending FlightAware ADS-B
Tue 05:21:19 PM 40.7000 -73.2850 264° West 278 320 7,200 -656 Descending FlightAware ADS-B
Tue 05:21:53 PM 40.7080 -73.3390 281° West 272 313 6,800 -444 Descending FlightAware ADS-B
Tue 05:22:13 PM 40.7290 -73.3600 323° Northwest 263 303 6,800  Level FlightAware ADS-B
Tue 05:22:40 PM 40.7500 -73.3900 313° West 262 302 6,800  Level FlightAware ADS-B
Tue 05:22:52 PM 40.7540 -73.4100 285° West 271 312 6,800  Level FlightAware ADS-B
Tue 05:23:17 PM 40.7420 -73.4460 246° West 273 314 6,800  Level FlightAware ADS-B
Tue 05:23:37 PM 40.7190 -73.4630 209° Southwest 276 318 6,800  Level FlightAware ADS-B
Tue 05:24:18 PM 40.6680 -73.4520 171° South 274 315 6,800  Level FlightAware ADS-B
Tue 05:24:30 PM 40.6540 -73.4480 168° South 274 315 6,800  Level FlightAware ADS-B
Tue 05:25:13 PM 40.6030 -73.4640 193° South 270 311 6,800  Level FlightAware ADS-B
Tue 05:25:45 PM 40.5659 -73.4887 207° Southwest 269 310 6,800 -111 Level FlightAware ADS-B
Tue 05:26:07 PM 40.5421 -73.5046 207° Southwest 267 307 6,700 -649 Descending FlightAware ADS-B
Tue 05:26:22 PM 40.5249 -73.5153 205° Southwest 265 305 6,400 -1,125 Descending FlightAware ADS-B
Tue 05:26:39 PM 40.5068 -73.5272 207° Southwest 263 303 6,100 -1,235 Descending FlightAware ADS-B
Tue 05:26:56 PM 40.4884 -73.5408 209° Southwest 260 299 5,700 -1,355 Descending FlightAware ADS-B
Tue 05:27:10 PM 40.4783 -73.5575 232° Southwest 256 295 5,400 -909 Descending FlightAware ADS-B
Tue 05:27:29 PM 40.4658 -73.5809 235° Southwest 244 281 5,200 -875 Descending FlightAware ADS-B
Tue 05:27:58 PM 40.4469 -73.6149 234° Southwest 234 269 4,700 -1,102 Descending FlightAware ADS-B
Tue 05:28:18 PM 40.4341 -73.6378 234° Southwest 233 268 4,300 -871 Descending FlightAware ADS-B
Tue 05:29:00 PM 40.4077 -73.6863 234° Southwest 232 267 3,800 -294 Descending FlightAware ADS-B
Tue 05:30:00 PM 40.3980 -73.7618 260° West 202 232 3,800  Level FlightAware ADS-B
Tue 05:30:18 PM 40.3962 -73.7844 264° West 207 238 3,800  Level FlightAware ADS-B
Tue 05:30:38 PM 40.3956 -73.8088 268° West 207 238 3,800  Level FlightAware ADS-B
Tue 05:30:46 PM 40.3979 -73.8181 288° West 199 229 3,800  Level FlightAware ADS-B
Tue 05:31:05 PM 40.4045 -73.8386 293° West 193 222 3,800  Level FlightAware ADS-B
Tue 05:31:22 PM 40.4106 -73.8571 293° West 194 223 3,800 -563 Level FlightAware ADS-B
Tue 05:31:37 PM 40.4160 -73.8729 294° West 188 216 3,500 -1,200 Descending FlightAware ADS-B
Tue 05:32:02 PM 40.4259 -73.8976 298° West 189 217 3,000 -1,029 Descending FlightAware ADS-B
Tue 05:32:12 PM 40.4333 -73.9029 331° Northwest 179 206 2,900 -393 Descending FlightAware ADS-B
Tue 05:34:04 PM 40.5153 -73.8688 18° North 181 208 2,200 -459 Descending FlightAware ADS-B
Tue 05:34:49 PM 40.5360 -73.8530 30° Northeast 178 205 1,700 -800 Descending FlightAware ADS-B
Tue 05:35:49 PM 40.5780 -73.8200 31° Northeast 158 182 800 -868 Descending FlightAware ADS-B
Tue 05:36:05 PM 40.5890 -73.8120 29° Northeast 151 174 600 -878 Descending FlightAware ADS-B
Tue 05:36:30 PM 40.6080 -73.7970 31° Northeast 146 168 200 -960 Descending FlightAware ADS-B
Tue 05:36:57 PM 40.6260 -73.7820 32° Northeast 140 161 -444 Descending FlightAware ADS-B
Tue 05:37:30 PM 40.6380 -73.7730 30° Northeast 39 45  Level FlightAware ADS-B
Tue 05:37:43 PM 40.6390 -73.7730 360° North 18 21  Level FlightAware ADS-B
Tue 05:38:08 PM 40.6400 -73.7730 360° North 24 28  Level FlightAware ADS-B
Tue 05:38:40 PM 40.6400 -73.7750 270° West 26 30  Level FlightAware ADS-B
Tue 05:38:55 PM 40.6390 -73.7750 180° South 2 2  Level FlightAware ADS-B
Tue 05:39:57 PM 40.6380 -73.7760 217° Southwest 19 22  Level FlightAware ADS-B
Tue 05:41:29 PM 40.6370 -73.7760 180° South 21 24  Level FlightAware ADS-B
Tue 05:42:23 PM 40.6380 -73.7750 37° Northeast 27 31  Level FlightAware ADS-B

Login

Don't have an account? Register now (free) for customized features, flight alerts, and more!